This is the latest recevied weather packets stored in our database for station/object OE3TEC-15. If no packets are shown the sender has not sent any weather packets the latest 10 day(s).
| Time | Temp. | Humidity | Pressure | Rain* | Wind** | Luminosity | Snow |
|---|---|---|---|---|---|---|---|
| 1777679629 | 5° C | 80% | 1026.6 hPa | 0 mm | - | 0 W/m² | - |
| 1777679022 | 5.56° C | 80% | 1026.7 hPa | 0 mm | - | 0 W/m² | - |
| 1777678415 | 5.56° C | 79% | 1026.8 hPa | 0 mm | - | 0 W/m² | - |
| 1777677809 | 5.56° C | 78% | 1026.8 hPa | 0 mm | - | 0 W/m² | - |
| 1777677201 | 6.11° C | 78% | 1026.8 hPa | 0 mm | - | 0 W/m² | - |
| 1777676594 | 6.67° C | 75% | 1026.7 hPa | 0 mm | - | 0 W/m² | - |
| 1777675987 | 6.67° C | 75% | 1026.6 hPa | 0 mm | - | 0 W/m² | - |
| 1777675379 | 7.22° C | 75% | 1026.8 hPa | 0 mm | - | 0 W/m² | - |
| 1777674772 | 7.22° C | 74% | 1026.7 hPa | 0 mm | - | 0 W/m² | - |
| 1777674166 | 7.22° C | 75% | 1026.7 hPa | 0 mm | - | 0 W/m² | - |
| 1777673557 | 7.22° C | 74% | 1026.8 hPa | 0 mm | - | 0 W/m² | - |
| 1777672950 | 7.22° C | 73% | 1026.7 hPa | 0 mm | - | 0 W/m² | - |
| 1777672343 | 6.67° C | 75% | 1026.7 hPa | 0 mm | - | 0 W/m² | - |
| 1777671737 | 7.22° C | 74% | 1026.6 hPa | 0 mm | - | 0 W/m² | - |
| 1777671129 | 7.22° C | 74% | 1026.7 hPa | 0 mm | - | 0 W/m² | - |
| 1777670522 | 7.78° C | 73% | 1026.7 hPa | 0 mm | - | 0 W/m² | - |
| 1777669915 | 7.78° C | 72% | 1026.7 hPa | 0 mm | - | 0 W/m² | - |
| 1777669307 | 7.78° C | 72% | 1026.7 hPa | 0 mm | - | 0 W/m² | - |
| 1777668700 | 8.89° C | 69% | 1026.6 hPa | 0 mm | - | 0 W/m² | - |
| 1777668093 | 8.33° C | 70% | 1026.5 hPa | 0 mm | - | 0 W/m² | - |
| 1777667485 | 8.33° C | 70% | 1026.6 hPa | 0 mm | - | 0 W/m² | - |
| 1777666878 | 8.89° C | 70% | 1026.5 hPa | 0 mm | - | 0 W/m² | - |
| 1777666271 | 8.89° C | 68% | 1026.4 hPa | 0 mm | - | 0 W/m² | - |
| 1777665665 | 9.44° C | 67% | 1026.5 hPa | 0 mm | - | 0 W/m² | - |
| 1777665057 | 9.44° C | 66% | 1026.6 hPa | 0 mm | - | 0 W/m² | - |
* Rain latest hour (hover to see other rain measurements)
** Current wind speed in m/s (hover to see current wind gust speed)